Time;durP1;ratioP1;P1;durP2;ratioP2;P2;SDS_P1;SDS_P2;PMS_P1;PMS_P2;Temp;Humidity;BMP_temperature;BMP_pressure;BME280_temperature;BME280_humidity;BME280_pressure;Samples;Min_cycle;Max_cycle;Signal;HPM_P1;HPM_P2
2023/10/12 00:01:57;;;;;;;0.00;0.00;;;;;;;16.36;100.00;101196.03;5113029;28;20555;-47
2023/10/12 00:04:46;;;;;;;0.00;0.00;;;;;;;16.24;100.00;101199.41;5112185;28;20045;-43
2023/10/12 00:07:15;;;;;;;0.00;0.00;;;;;;;16.21;100.00;101198.97;5108872;27;20055;-45
2023/10/12 00:09:48;;;;;;;0.00;0.00;;;;;;;16.12;100.00;101205.66;5104934;28;20084;-43
2023/10/12 00:12:29;;;;;;;0.00;0.00;;;;;;;16.06;100.00;101198.34;5102066;28;20362;-44
2023/10/12 00:14:55;;;;;;;0.00;0.00;;;;;;;15.99;100.00;101196.47;5112025;28;20386;-42
2023/10/12 00:17:23;;;;;;;0.00;0.00;;;;;;;15.97;100.00;101203.97;5111535;28;20027;-44
2023/10/12 00:19:51;;;;;;;0.00;0.00;;;;;;;15.97;100.00;101205.88;5107545;28;20032;-46
2023/10/12 00:22:16;;;;;;;0.00;0.00;;;;;;;15.92;100.00;101217.34;5112674;28;20101;-45
2023/10/12 00:24:42;;;;;;;0.00;0.00;;;;;;;15.92;100.00;101206.47;5111781;28;20419;-47
2023/10/12 00:27:09;;;;;;;0.00;0.00;;;;;;;15.90;100.00;101211.28;5112004;28;20051;-47
2023/10/12 00:29:35;;;;;;;0.00;0.00;;;;;;;15.88;100.00;101207.97;5112019;28;20575;-46
2023/10/12 00:32:02;;;;;;;0.00;0.00;;;;;;;15.87;100.00;101208.97;5111295;28;20050;-45
2023/10/12 00:34:31;;;;;;;0.00;0.00;;;;;;;15.85;100.00;101215.66;5111644;28;20020;-43
2023/10/12 00:36:59;;;;;;;0.00;0.00;;;;;;;15.85;100.00;101218.38;5104718;28;20023;-44
2023/10/12 00:39:35;;;;;;;0.00;0.00;;;;;;;15.84;100.00;101228.41;5111778;28;20044;-46
2023/10/12 00:42:00;;;;;;;0.00;0.00;;;;;;;15.84;100.00;101228.41;5113013;28;20027;-44
2023/10/12 00:44:29;;;;;;;0.00;0.00;;;;;;;15.80;100.00;101229.88;5110049;28;20088;-47
2023/10/12 00:49:26;;;;;;;0.00;0.00;;;;;;;15.82;100.00;101238.63;5111337;28;20511;-47
2023/10/12 00:51:59;;;;;;;0.00;0.00;;;;;;;15.79;100.00;101236.31;5111767;28;20118;-48
2023/10/12 00:57:03;;;;;;;0.00;0.00;;;;;;;15.76;100.00;101212.31;5112030;28;20039;-48
2023/10/12 00:59:31;;;;;;;0.00;0.00;;;;;;;15.78;100.00;101210.25;5110415;28;20396;-50
2023/10/12 01:01:57;;;;;;;;;;;;;;;15.75;100.00;101218.81;5110303;28;20052;-49
2023/10/12 01:04:23;;;;;;;0.00;0.00;;;;;;;15.71;100.00;101206.69;5108418;28;19947;-46
2023/10/12 01:06:48;;;;;;;0.00;0.00;;;;;;;15.66;100.00;101220.00;5110415;28;20031;-46
2023/10/12 01:09:20;;;;;;;0.00;0.00;;;;;;;15.64;100.00;101211.22;5110560;28;20027;-48
2023/10/12 01:11:58;;;;;;;0.00;0.00;;;;;;;15.63;100.00;101212.28;5109942;28;20038;-47
2023/10/12 01:14:29;;;;;;;0.00;0.00;;;;;;;15.61;100.00;101204.34;5109400;28;20542;-47
2023/10/12 01:16:58;;;;;;;0.00;0.00;;;;;;;15.65;100.00;101205.59;5105923;28;20116;-42
2023/10/12 01:19:44;;;;;;;0.00;0.00;;;;;;;15.66;100.00;101201.00;5110890;28;20401;-44
2023/10/12 01:22:13;;;;;;;0.00;0.00;;;;;;;15.67;100.00;101198.09;5110216;28;20043;-47
2023/10/12 01:24:58;;;;;;;0.00;0.00;;;;;;;15.65;100.00;101186.59;5110687;28;20350;-49
2023/10/12 01:27:25;;;;;;;0.00;0.00;;;;;;;15.67;100.00;101200.81;5090855;28;20336;-47
2023/10/12 01:29:51;;;;;;;0.00;0.00;;;;;;;15.65;100.00;101205.59;5091650;28;20028;-47
2023/10/12 01:34:51;;;;;;;0.00;0.00;;;;;;;15.63;100.00;101207.69;5111179;28;20035;-46
2023/10/12 01:37:22;;;;;;;0.00;0.00;;;;;;;15.64;100.00;101203.09;5111298;28;20047;-49
2023/10/12 01:40:15;;;;;;;0.00;0.00;;;;;;;15.62;100.00;101206.03;5111106;28;20016;-48
2023/10/12 01:45:16;;;;;;;0.00;0.00;;;;;;;15.55;100.00;101205.16;5110948;28;20035;-48
2023/10/12 01:47:42;;;;;;;0.00;0.00;;;;;;;15.53;100.00;101202.69;5110768;28;20034;-49
2023/10/12 01:50:09;;;;;;;0.00;0.00;;;;;;;15.55;100.00;101197.03;5111100;28;20023;-48
2023/10/12 01:52:35;;;;;;;0.00;0.00;;;;;;;15.56;100.00;101194.13;5110884;28;20084;-48
2023/10/12 01:55:01;;;;;;;0.00;0.00;;;;;;;15.61;100.00;101203.50;5111067;28;20043;-47
2023/10/12 01:57:35;;;;;;;0.00;0.00;;;;;;;15.62;100.00;101199.75;5110183;28;20035;-48
2023/10/12 02:00:09;;;;;;;0.00;0.00;;;;;;;15.61;100.00;101198.06;5110189;28;20027;-46
2023/10/12 02:02:35;;;;;;;0.00;0.00;;;;;;;15.61;100.00;101198.06;5110466;28;20050;-48
2023/10/12 02:05:01;;;;;;;0.00;0.00;;;;;;;15.57;100.00;101195.78;5110562;28;20424;-46
2023/10/12 02:07:27;;;;;;;0.00;0.00;;;;;;;15.58;100.00;101193.91;5110493;28;20171;-47
2023/10/12 02:09:52;;;;;;;0.00;0.00;;;;;;;15.60;100.00;101199.97;5110582;28;20126;-46
2023/10/12 02:12:25;;;;;;;0.00;0.00;;;;;;;15.63;100.00;101196.00;5110583;28;20051;-47
2023/10/12 02:14:50;;;;;;;0.00;0.00;;;;;;;15.64;100.00;101186.81;5110656;28;20031;-50
2023/10/12 02:17:15;;;;;;;0.00;0.00;;;;;;;15.61;100.00;101179.09;5110302;28;20024;-47
2023/10/12 02:19:43;;;;;;;0.00;0.00;;;;;;;15.66;100.00;101172.00;5110775;28;20111;-49
2023/10/12 02:22:28;;;;;;;0.00;0.00;;;;;;;15.68;100.00;101177.22;5110652;28;20028;-48
2023/10/12 02:25:08;;;;;;;0.00;0.00;;;;;;;15.68;100.00;101160.94;5098671;28;20458;-48
2023/10/12 02:27:34;;;;;;;0.00;0.00;;;;;;;15.65;100.00;101167.63;5110740;28;20054;-48
2023/10/12 02:29:59;;;;;;;0.00;0.00;;;;;;;15.62;100.00;101167.22;5110986;28;20473;-47
2023/10/12 02:32:24;;;;;;;0.00;0.00;;;;;;;15.63;100.00;101175.13;5110923;28;20032;-48
2023/10/12 02:34:59;;;;;;;0.00;0.00;;;;;;;15.62;100.00;101178.06;5110771;28;20044;-46
2023/10/12 02:37:27;;;;;;;0.00;0.00;;;;;;;15.61;100.00;101177.19;5110564;28;20032;-49
2023/10/12 02:39:54;;;;;;;;;;;;;;;15.61;100.00;101176.38;5111211;28;20027;-50
2023/10/12 02:42:22;;;;;;;0.00;0.00;;;;;;;15.59;100.00;101187.44;5110593;28;20334;-50
2023/10/12 02:44:57;;;;;;;0.00;0.00;;;;;;;15.59;100.00;101182.84;5110420;28;20031;-47
2023/10/12 02:47:33;;;;;;;0.00;0.00;;;;;;;15.58;100.00;101183.88;5110272;28;20032;-48
2023/10/12 02:52:30;;;;;;;0.00;0.00;;;;;;;15.60;100.00;101180.97;5110570;28;20377;-52
2023/10/12 02:54:56;;;;;;;;;;;;;;;15.58;100.00;101172.19;5110859;28;20035;-47
2023/10/12 02:57:24;;;;;;;0.00;0.00;;;;;;;15.56;100.00;101172.41;5109821;28;19916;-49
2023/10/12 02:59:57;;;;;;;0.00;0.00;;;;;;;15.53;100.00;101186.41;5110491;28;20080;-48
2023/10/12 03:02:32;;;;;;;0.00;0.00;;;;;;;15.52;100.00;101187.41;5110223;28;20039;-43
2023/10/12 03:05:07;;;;;;;0.00;0.00;;;;;;;15.52;100.00;101194.72;5110193;28;20032;-44
2023/10/12 03:07:37;;;;;;;0.00;0.00;;;;;;;15.49;100.00;101187.84;5109901;28;20028;-47
2023/10/12 03:10:07;;;;;;;0.00;0.00;;;;;;;15.51;100.00;101184.94;5110507;28;20036;-43
2023/10/12 03:12:40;;;;;;;0.00;0.00;;;;;;;15.52;100.00;101184.72;5110308;28;20035;-43
2023/10/12 03:15:12;;;;;;;0.00;0.00;;;;;;;15.49;100.00;101185.13;5110557;28;20023;-43
2023/10/12 03:17:42;;;;;;;0.00;0.00;;;;;;;15.48;100.00;101183.47;5110298;28;20504;-43
2023/10/12 03:20:22;;;;;;;0.00;0.00;;;;;;;15.50;100.00;101192.22;5114081;28;20034;-45
2023/10/12 03:22:53;;;;;;;0.00;0.00;;;;;;;15.52;100.00;101200.97;5113635;28;20024;-42
2023/10/12 03:25:19;;;;;;;0.00;0.00;;;;;;;15.53;100.00;101199.97;5112944;28;20035;-43
2023/10/12 03:27:53;;;;;;;0.00;0.00;;;;;;;15.50;100.00;101205.78;5113633;28;20063;-44
2023/10/12 03:30:24;;;;;;;0.00;0.00;;;;;;;15.46;100.00;101215.38;5113878;28;20535;-45
2023/10/12 03:32:49;;;;;;;0.00;0.00;;;;;;;15.49;100.00;101211.41;5113469;28;20031;-46
2023/10/12 03:35:22;;;;;;;0.00;0.00;;;;;;;15.48;100.00;101205.16;5121306;27;20023;-47
2023/10/12 03:37:51;;;;;;;0.00;0.00;;;;;;;15.46;100.00;101206.41;5115920;27;20389;-45
2023/10/12 03:43:26;;;;;;;0.00;0.00;;;;;;;15.43;100.00;101210.38;5069314;28;20489;-47
2023/10/12 03:46:07;;;;;;;0.00;0.00;;;;;;;15.39;100.00;101206.38;5111962;28;20047;-50
2023/10/12 03:49:06;;;;;;;0.00;0.00;;;;;;;15.38;100.00;101202.00;5113052;28;20032;-51
2023/10/12 03:51:39;;;;;;;0.00;0.00;;;;;;;15.40;100.00;101208.03;5112704;28;20134;-49
2023/10/12 03:54:12;;;;;;;0.00;0.00;;;;;;;15.39;100.00;101209.09;5113624;28;20545;-47
2023/10/12 03:56:39;;;;;;;0.00;0.00;;;;;;;15.38;100.00;101210.16;5114282;27;20484;-51
2023/10/12 03:59:08;;;;;;;0.00;0.00;;;;;;;15.41;100.00;101208.91;5113270;28;20070;-49
2023/10/12 04:01:40;;;;;;;0.00;0.00;;;;;;;15.43;100.00;101209.50;5112850;28;20047;-45
2023/10/12 04:09:43;;;;;;;0.00;0.00;;;;;;;15.48;100.00;101210.59;5112659;28;20089;-46
2023/10/12 04:25:21;;;;;;;0.00;0.00;;;;;;;15.47;100.00;101241.44;5110058;28;20389;-46
2023/10/12 04:27:52;;;;;;;0.00;0.00;;;;;;;15.57;100.00;101231.03;5103445;28;20035;-48
2023/10/12 04:30:42;;;;;;;0.00;0.00;;;;;;;15.61;100.00;101225.22;5111633;28;20038;-48
2023/10/12 04:33:17;;;;;;;0.00;0.00;;;;;;;15.64;100.00;101230.22;5097568;28;20027;-47
2023/10/12 04:35:53;;;;;;;0.00;0.00;;;;;;;15.62;100.00;101232.31;5112357;28;20020;-43
2023/10/12 04:43:37;;;;;;;0.00;0.00;;;;;;;15.41;100.00;101247.72;5112973;28;20034;-45
2023/10/12 04:48:41;;;;;;;0.00;0.00;;;;;;;15.27;100.00;101241.41;5106936;28;20028;-45
2023/10/12 04:51:07;;;;;;;0.00;0.00;;;;;;;15.24;100.00;101246.38;5109966;27;20034;-46
2023/10/12 04:53:53;;;;;;;0.00;0.00;;;;;;;15.21;100.00;101238.66;5110417;28;20031;-50
2023/10/12 04:56:23;;;;;;;0.00;0.00;;;;;;;15.10;100.00;101230.06;5101921;28;20096;-47
2023/10/12 04:58:59;;;;;;;0.00;0.00;;;;;;;15.03;100.00;101229.19;5109671;28;20034;-48
2023/10/12 05:01:30;;;;;;;0.00;0.00;;;;;;;15.02;100.00;101229.41;5112157;28;20031;-47
2023/10/12 05:04:09;;;;;;;0.00;0.00;;;;;;;14.95;100.00;101232.06;5112393;28;20032;-48
2023/10/12 05:06:46;;;;;;;0.00;0.00;;;;;;;14.92;100.00;101243.31;5110724;28;20485;-49
2023/10/12 05:09:12;;;;;;;0.00;0.00;;;;;;;14.87;100.00;101246.63;5111135;28;20552;-48
2023/10/12 05:11:38;;;;;;;0.00;0.00;;;;;;;14.88;100.00;101252.91;5112577;28;20106;-49
2023/10/12 05:14:13;;;;;;;0.00;0.00;;;;;;;14.85;100.00;101253.28;5112192;28;20035;-48
2023/10/12 05:16:42;;;;;;;0.00;0.00;;;;;;;14.85;100.00;101262.28;5097133;27;20039;-50
2023/10/12 05:19:11;;;;;;;0.00;0.00;;;;;;;14.80;100.00;101262.03;5107352;28;20389;-49
2023/10/12 05:21:37;;;;;;;0.00;0.00;;;;;;;14.80;100.00;101262.03;5103606;27;20035;-50
2023/10/12 05:24:03;;;;;;;0.00;0.00;;;;;;;14.82;100.00;101262.66;5109881;28;20032;-50
2023/10/12 05:26:30;;;;;;;0.00;0.00;;;;;;;14.79;100.00;101265.75;5109942;28;20492;-49
2023/10/12 05:29:17;;;;;;;0.00;0.00;;;;;;;14.63;100.00;101269.63;5092540;28;20103;-50
2023/10/12 05:31:48;;;;;;;0.00;0.00;;;;;;;14.60;100.00;101275.44;5101674;28;20496;-51
2023/10/12 05:34:32;;;;;;;0.00;0.00;;;;;;;14.62;100.00;101276.09;5111538;28;20036;-50
2023/10/12 05:37:00;;;;;;;0.00;0.00;;;;;;;14.55;100.00;101277.06;5111330;28;20035;-47
2023/10/12 05:39:27;;;;;;;0.00;0.00;;;;;;;14.49;100.00;101276.78;5111656;28;20462;-45
2023/10/12 05:41:57;;;;;;;0.00;0.00;;;;;;;14.47;100.00;101272.59;5111608;28;20038;-46
2023/10/12 05:44:26;;;;;;;0.00;0.00;;;;;;;14.44;100.00;101267.59;5109762;28;20031;-46
2023/10/12 05:46:59;;;;;;;0.00;0.00;;;;;;;14.37;100.00;101272.13;5110370;28;20052;-46
2023/10/12 05:49:25;;;;;;;0.00;0.00;;;;;;;14.24;100.00;101275.53;5110233;28;20338;-42
2023/10/12 05:51:50;;;;;;;0.00;0.00;;;;;;;14.19;100.00;101275.28;5101024;28;20035;-46
2023/10/12 05:54:19;;;;;;;0.00;0.00;;;;;;;14.18;100.00;101279.88;5113386;27;20019;-46
2023/10/12 05:56:45;;;;;;;0.00;0.00;;;;;;;14.15;100.00;101280.28;5119388;27;20028;-44
2023/10/12 05:59:14;;;;;;;0.00;0.00;;;;;;;14.16;100.00;101281.94;5109944;28;20015;-48
2023/10/12 06:01:45;;;;;;;0.00;0.00;;;;;;;14.20;100.00;101277.81;5110621;28;20120;-44
2023/10/12 06:04:14;;;;;;;0.00;0.00;;;;;;;14.12;100.00;101291.50;5110174;28;20036;-46
2023/10/12 06:06:43;;;;;;;0.00;0.00;;;;;;;14.08;100.00;101292.91;5108357;28;20030;-43
2023/10/12 06:09:13;;;;;;;0.00;0.00;;;;;;;14.06;100.00;101292.28;5103383;28;20054;-47
2023/10/12 06:11:43;;;;;;;0.00;0.00;;;;;;;14.04;100.00;101302.44;5111000;28;20502;-46
2023/10/12 06:14:09;;;;;;;0.00;0.00;;;;;;;14.02;100.00;101308.03;5096533;28;20050;-47
2023/10/12 06:16:40;;;;;;;0.00;0.00;;;;;;;14.00;100.00;101301.16;5088180;28;20036;-42
2023/10/12 06:19:55;;;;;;;0.00;0.00;;;;;;;13.97;100.00;101298.84;5102575;28;20034;-44
2023/10/12 06:22:19;;;;;;;0.00;0.00;;;;;;;13.92;100.00;101306.69;5090932;28;20489;-45
2023/10/12 06:24:48;;;;;;;0.00;0.00;;;;;;;13.92;100.00;101312.09;5104366;28;20044;-45
2023/10/12 06:29:50;;;;;;;0.00;0.00;;;;;;;13.89;100.00;101323.31;5104284;28;20259;-47
2023/10/12 06:32:19;;;;;;;0.00;0.00;;;;;;;13.81;100.00;101322.41;5103633;28;20535;-46
2023/10/12 06:38:15;;;;;;;0.00;0.00;;;;;;;13.77;100.00;101322.97;5108178;28;20158;-48
2023/10/12 06:45:46;;;;;;;0.00;0.00;;;;;;;13.76;100.00;101329.41;5104209;28;20123;-48
2023/10/12 06:48:43;;;;;;;0.00;0.00;;;;;;;13.75;100.00;101338.56;5103895;28;20050;-46
2023/10/12 06:51:15;;;;;;;0.00;0.00;;;;;;;13.78;100.00;101344.44;5104031;28;20036;-46
2023/10/12 06:53:52;;;;;;;0.00;0.00;;;;;;;13.76;100.00;101345.66;5106893;28;20032;-46
2023/10/12 06:58:44;;;;;;;0.00;0.00;;;;;;;13.80;100.00;101353.19;5108502;28;20047;-49
2023/10/12 07:01:27;;;;;;;0.00;0.00;;;;;;;13.77;100.00;101360.84;5108316;28;20362;-47
2023/10/12 07:03:55;;;;;;;0.00;0.00;;;;;;;13.77;100.00;101356.28;5108294;28;20645;-50
2023/10/12 07:06:20;;;;;;;;;;;;;;;13.76;100.00;101351.06;5109970;28;20038;-47
2023/10/12 07:08:46;;;;;;;0.00;0.00;;;;;;;13.74;100.00;101350.41;5107522;28;19923;-50
2023/10/12 07:11:17;;;;;;;0.00;0.00;;;;;;;13.74;100.00;101347.69;5108609;28;20024;-45
2023/10/12 07:13:45;;;;;;;0.00;0.00;;;;;;;13.71;100.00;101357.03;5107624;28;20478;-47
2023/10/12 07:16:15;;;;;;;0.00;0.00;;;;;;;13.65;100.00;101363.22;5107784;28;20046;-47
2023/10/12 07:18:43;;;;;;;0.00;0.00;;;;;;;13.64;100.00;101364.25;5107190;28;20036;-47
2023/10/12 07:21:21;;;;;;;0.00;0.00;;;;;;;13.69;100.00;101372.63;5107463;28;20035;-45
2023/10/12 07:23:52;;;;;;;0.00;0.00;;;;;;;13.66;100.00;101362.16;5108532;27;20032;-44
2023/10/12 07:26:18;;;;;;;0.00;0.00;;;;;;;13.63;100.00;101359.84;5109413;28;20042;-46
2023/10/12 07:28:49;;;;;;;0.00;0.00;;;;;;;13.63;100.00;101376.06;5110740;28;20031;-48
2023/10/12 07:34:05;;;;;;;;;;;;;;;13.58;100.00;101386.63;5108390;28;20058;-48
2023/10/12 07:36:46;;;;;;;0.00;0.00;;;;;;;13.59;100.00;101389.16;5107006;28;19912;-46
2023/10/12 07:39:23;;;;;;;0.00;0.00;;;;;;;13.49;100.00;101379.66;5107261;28;20367;-48
2023/10/12 07:42:01;;;;;;;0.00;0.00;;;;;;;13.43;100.00;101373.13;5107680;28;20054;-48
2023/10/12 07:44:42;;;;;;;0.00;0.00;;;;;;;13.35;100.00;101382.19;5108377;28;20027;-47
2023/10/12 07:47:14;;;;;;;0.00;0.00;;;;;;;13.42;100.00;101381.41;5106544;28;20027;-49
2023/10/12 07:49:50;;;;;;;0.00;0.00;;;;;;;13.41;100.00;101379.75;5107737;27;20031;-49
2023/10/12 07:57:20;;;;;;;0.00;0.00;;;;;;;13.44;100.00;101373.97;5106036;28;20059;-48
2023/10/12 08:05:43;;;;;;;0.00;0.00;;;;;;;13.51;100.00;101388.44;5107230;28;20104;-45
2023/10/12 08:08:17;;;;;;;;;;;;;;;13.59;100.00;101396.44;5105936;28;20051;-46
2023/10/12 08:32:11;;;;;;;0.00;0.00;;;;;;;13.91;100.00;101410.56;5105891;28;20219;-41
2023/10/12 08:39:49;;;;;;;0.00;0.00;;;;;;;13.87;100.00;101412.78;5106174;28;20063;-46
2023/10/12 08:44:52;;;;;;;0.00;0.00;;;;;;;13.77;100.00;101405.00;5109221;27;20036;-45
2023/10/12 08:47:25;;;;;;;0.00;0.00;;;;;;;13.79;100.00;101404.78;5106705;28;20123;-45
2023/10/12 08:50:01;;;;;;;0.00;0.00;;;;;;;13.80;100.00;101393.78;5107146;28;20126;-44
2023/10/12 08:52:31;;;;;;;0.00;0.00;;;;;;;13.94;100.00;101386.66;5107210;28;20028;-45
2023/10/12 08:55:06;;;;;;;0.00;0.00;;;;;;;13.89;100.00;101385.56;5088173;28;20481;-42
2023/10/12 08:57:43;;;;;;;0.00;0.00;;;;;;;13.86;100.00;101370.53;5105242;27;20038;-44
2023/10/12 09:00:23;;;;;;;0.00;0.00;;;;;;;13.94;100.00;101381.25;5106170;27;20023;-46
2023/10/12 09:03:00;;;;;;;0.00;0.00;;;;;;;13.89;100.00;101372.03;5089317;28;20104;-45
2023/10/12 09:05:32;;;;;;;0.00;0.00;;;;;;;13.86;100.00;101375.94;5106854;28;20040;-49
2023/10/12 09:08:39;;;;;;;0.00;0.00;;;;;;;13.88;100.00;101370.34;5106516;28;20123;-48
2023/10/12 09:11:02;;;;;;;0.00;0.00;;;;;;;13.95;100.00;101365.84;5106678;27;20362;-46
2023/10/12 09:13:33;;;;;;;0.00;0.00;;;;;;;13.97;100.00;101369.19;5104043;28;20524;-47
2023/10/12 09:16:03;;;;;;;0.00;0.00;;;;;;;13.96;100.00;101368.38;5106782;27;20031;-46
2023/10/12 09:18:30;;;;;;;0.00;0.00;;;;;;;14.02;100.00;101366.75;5104873;28;20034;-46
2023/10/12 09:23:28;;;;;;;0.00;0.00;;;;;;;14.02;100.00;101358.63;5106353;28;20482;-45
2023/10/12 09:31:15;;;;;;;0.00;0.00;;;;;;;14.00;100.00;101363.41;5104545;28;20076;-46
2023/10/12 09:36:28;;;;;;;0.00;0.00;;;;;;;13.90;100.00;101358.31;5104779;28;20047;-44
2023/10/12 09:38:57;;;;;;;0.00;0.00;;;;;;;13.93;100.00;101362.47;5088289;28;20040;-43
2023/10/12 09:41:32;;;;;;;0.00;0.00;;;;;;;14.03;100.00;101357.59;5106192;28;20107;-44
2023/10/12 09:43:59;;;;;;;0.00;0.00;;;;;;;13.97;100.00;101352.97;5105649;28;20512;-48
2023/10/12 09:46:27;;;;;;;0.00;0.00;;;;;;;13.95;100.00;101346.91;5103365;28;20058;-47
2023/10/12 09:48:58;;;;;;;0.00;0.00;;;;;;;13.98;100.00;101343.78;5088845;27;20036;-47
2023/10/12 09:51:25;;;;;;;0.00;0.00;;;;;;;14.01;100.00;101343.44;5105302;28;20127;-47
2023/10/12 09:53:59;;;;;;;0.00;0.00;;;;;;;13.91;100.00;101332.91;5086802;28;20901;-43
2023/10/12 09:56:28;;;;;;;0.00;0.00;;;;;;;13.99;100.00;101337.38;5105105;28;20378;-44
2023/10/12 10:06:55;;;;;;;0.00;0.00;;;;;;;14.13;100.00;101317.50;5104355;28;20591;-42
2023/10/12 10:12:00;;;;;;;0.00;0.00;;;;;;;14.14;100.00;101330.03;5104988;28;20540;-45
2023/10/12 10:14:36;;;;;;;0.00;0.00;;;;;;;14.17;100.00;101326.94;5088549;28;20505;-42
2023/10/12 10:17:02;;;;;;;0.00;0.00;;;;;;;14.16;100.00;101330.66;5104146;28;20057;-44
2023/10/12 10:19:30;;;;;;;0.00;0.00;;;;;;;14.25;100.00;101324.09;5107065;28;20403;-48
2023/10/12 10:22:06;;;;;;;0.00;0.00;;;;;;;14.22;100.00;101318.25;5104885;28;20030;-44
2023/10/12 10:24:46;;;;;;;0.00;0.00;;;;;;;14.26;100.00;101319.50;5104846;28;20038;-43
2023/10/12 10:27:16;;;;;;;0.00;0.00;;;;;;;14.21;100.00;101311.97;5106998;28;20038;-41
2023/10/12 10:29:53;;;;;;;0.00;0.00;;;;;;;14.14;100.00;101312.94;5109933;28;20431;-43
2023/10/12 10:32:29;;;;;;;0.00;0.00;;;;;;;14.17;100.00;101308.00;5110339;28;20036;-44
2023/10/12 10:34:58;;;;;;;0.00;0.00;;;;;;;14.15;100.00;101301.94;5111844;28;20023;-43
2023/10/12 10:37:39;;;;;;;0.00;0.00;;;;;;;14.19;100.00;101297.81;5112467;28;20047;-47
2023/10/12 10:40:08;;;;;;;0.00;0.00;;;;;;;14.22;100.00;101299.28;5112459;28;20043;-48
2023/10/12 10:42:36;;;;;;;0.00;0.00;;;;;;;14.21;100.00;101297.59;5112499;28;20032;-46
2023/10/12 10:45:12;;;;;;;0.00;0.00;;;;;;;14.21;100.00;101300.31;5110794;28;20032;-48
2023/10/12 10:47:38;;;;;;;0.00;0.00;;;;;;;14.14;100.00;101308.38;5108982;28;20016;-46
2023/10/12 10:50:12;;;;;;;0.00;0.00;;;;;;;14.16;100.00;101308.16;5109872;28;20035;-43
2023/10/12 10:52:38;;;;;;;0.00;0.00;;;;;;;14.13;100.00;101320.22;5110060;28;20485;-40
2023/10/12 10:55:10;;;;;;;0.00;0.00;;;;;;;14.11;100.00;101319.56;5111703;28;20020;-36
2023/10/12 10:57:37;;;;;;;0.00;0.00;;;;;;;14.11;100.00;101310.63;5109199;28;20488;-40
2023/10/12 11:00:10;;;;;;;0.00;0.00;;;;;;;14.12;100.00;101305.03;5106578;28;20051;-40
2023/10/12 11:02:37;;;;;;;0.00;0.00;;;;;;;14.09;100.00;101297.28;5107627;28;20048;-43
2023/10/12 11:05:09;;;;;;;0.00;0.00;;;;;;;14.07;100.00;101296.66;5108746;28;20103;-43
2023/10/12 11:07:36;;;;;;;0.00;0.00;;;;;;;14.12;100.00;101288.78;5109234;28;20103;-45
2023/10/12 11:12:31;;;;;;;0.00;0.00;;;;;;;14.16;100.00;101286.50;5107518;28;20374;-45
2023/10/12 11:15:19;;;;;;;0.00;0.00;;;;;;;14.15;100.00;101284.84;5108229;28;20055;-49
2023/10/12 11:17:56;;;;;;;0.00;0.00;;;;;;;14.32;100.00;101288.94;5108673;28;20032;-49
2023/10/12 11:23:07;;;;;;;0.00;0.00;;;;;;;14.43;100.00;101271.34;5105923;28;20428;-49
2023/10/12 11:25:39;;;;;;;0.00;0.00;;;;;;;14.51;100.00;101268.50;5108093;28;20055;-50
2023/10/12 11:28:26;;;;;;;0.00;0.00;;;;;;;14.50;100.00;101261.38;5107981;28;20031;-48
2023/10/12 11:30:52;;;;;;;0.00;0.00;;;;;;;14.53;100.00;101255.59;5110558;27;20036;-46
2023/10/12 11:33:23;;;;;;;0.00;0.00;;;;;;;14.52;100.00;101248.47;5107435;28;20406;-45
2023/10/12 11:35:49;;;;;;;0.00;0.00;;;;;;;14.58;100.00;101239.59;5107513;28;20055;-47
2023/10/12 11:38:20;;;;;;;0.00;0.00;;;;;;;14.60;100.00;101244.81;5104959;28;20112;-48
2023/10/12 11:40:52;;;;;;;0.00;0.00;;;;;;;14.72;100.00;101232.41;5106423;28;20397;-48
2023/10/12 11:43:53;;;;;;;0.00;0.00;;;;;;;14.65;100.00;101235.06;5104738;28;20846;-46
2023/10/12 11:46:18;;;;;;;0.00;0.00;;;;;;;14.61;100.00;101225.66;5105592;28;20035;-48
2023/10/12 11:48:44;;;;;;;0.00;0.00;;;;;;;14.56;100.00;101233.56;5089392;28;20030;-46
2023/10/12 11:51:13;;;;;;;0.00;0.00;;;;;;;14.57;100.00;101235.22;5106211;28;20114;-49
2023/10/12 11:53:39;;;;;;;0.00;0.00;;;;;;;14.58;100.00;101223.34;5107361;28;20045;-47
2023/10/12 11:56:17;;;;;;;0.00;0.00;;;;;;;14.64;100.00;101233.38;5107330;28;20028;-47
2023/10/12 11:58:54;;;;;;;;;;;;;;;14.59;100.00;101227.72;5107925;28;20132;-49
2023/10/12 12:01:19;;;;;;;0.00;0.00;;;;;;;14.59;100.00;101235.84;5107750;28;20048;-46
2023/10/12 12:03:45;;;;;;;0.00;0.00;;;;;;;14.62;100.00;101232.75;5107718;28;20428;-48
2023/10/12 12:06:21;;;;;;;0.00;0.00;;;;;;;14.63;100.00;101236.28;5107214;28;20023;-48
2023/10/12 12:08:51;;;;;;;0.00;0.00;;;;;;;14.64;100.00;101251.50;5107144;28;20541;-43
2023/10/12 12:11:19;;;;;;;0.00;0.00;;;;;;;14.66;100.00;101263.81;5107961;28;20128;-43
2023/10/12 12:13:51;;;;;;;0.00;0.00;;;;;;;14.68;100.00;101283.41;5108762;28;20405;-38
2023/10/12 12:16:20;;;;;;;0.00;0.00;;;;;;;14.67;100.00;101292.59;5106622;28;20077;-40
2023/10/12 12:18:50;;;;;;;0.00;0.00;;;;;;;14.73;100.00;101282.00;5105981;28;20070;-36
2023/10/12 12:21:17;;;;;;;0.00;0.00;;;;;;;14.80;100.00;101266.63;5106198;28;20061;-40
2023/10/12 12:23:47;;;;;;;0.00;0.00;;;;;;;14.92;100.00;101255.00;5106547;28;20486;-38
2023/10/12 12:26:14;;;;;;;0.00;0.00;;;;;;;14.99;100.00;101246.91;5106774;28;20035;-38
2023/10/12 12:28:49;;;;;;;0.00;0.00;;;;;;;15.01;100.00;101247.56;5105847;28;20110;-44
2023/10/12 12:31:15;;;;;;;0.00;0.00;;;;;;;14.98;100.00;101239.84;5106712;28;20126;-46
2023/10/12 12:33:43;;;;;;;0.00;0.00;;;;;;;14.95;100.00;101237.50;5106327;28;20103;-44
2023/10/12 12:36:12;;;;;;;0.00;0.00;;;;;;;14.95;100.00;101223.94;5106328;28;20023;-46
2023/10/12 12:41:19;;;;;;;0.00;0.00;;;;;;;14.91;100.00;101215.41;5106782;28;20036;-45
2023/10/12 12:43:48;;;;;;;0.00;0.00;;;;;;;14.93;100.00;101223.34;5106015;28;20035;-44
2023/10/12 12:46:14;;;;;;;0.00;0.00;;;;;;;14.97;100.00;101226.47;5105812;27;20069;-44
2023/10/12 12:48:39;;;;;;;0.00;0.00;;;;;;;15.02;100.00;101219.41;5109614;27;20023;-46
2023/10/12 12:51:13;;;;;;;0.00;0.00;;;;;;;15.08;100.00;101225.88;5106387;28;20031;-47
2023/10/12 12:53:39;;;;;;;0.00;0.00;;;;;;;15.05;100.00;101229.00;5105989;28;20065;-47
2023/10/12 12:56:04;;;;;;;0.00;0.00;;;;;;;15.06;100.00;101215.25;5106419;28;20092;-47
2023/10/12 12:58:36;;;;;;;0.00;0.00;;;;;;;15.05;100.00;101197.31;5105435;28;20027;-48
2023/10/12 13:01:01;;;;;;;0.00;0.00;;;;;;;15.03;100.00;101201.25;5103471;28;20061;-49
2023/10/12 13:03:28;;;;;;;0.00;0.00;;;;;;;15.15;100.00;101178.78;5105894;28;20051;-44
2023/10/12 13:05:53;;;;;;;0.00;0.00;;;;;;;15.31;100.00;101163.19;5104200;27;20104;-43
2023/10/12 13:08:19;;;;;;;0.00;0.00;;;;;;;15.35;100.00;101162.56;5102492;28;20039;-42
2023/10/12 13:10:44;;;;;;;0.00;0.00;;;;;;;15.39;100.00;101173.84;5102133;28;20032;-47
2023/10/12 13:13:09;;;;;;;0.00;0.00;;;;;;;15.45;100.00;101186.56;5103661;28;20050;-44
2023/10/12 13:15:41;;;;;;;0.00;0.00;;;;;;;15.47;100.00;101198.06;5101418;28;20031;-45
2023/10/12 13:18:14;;;;;;;0.00;0.00;;;;;;;15.46;100.00;101201.81;5101533;28;20039;-45
2023/10/12 13:20:46;;;;;;;0.00;0.00;;;;;;;15.51;100.00;101204.75;5102130;27;20703;-46
2023/10/12 13:23:13;;;;;;;0.00;0.00;;;;;;;15.56;100.00;101213.13;5085851;28;20390;-45
2023/10/12 13:25:39;;;;;;;0.00;0.00;;;;;;;15.58;100.00;101202.88;5103314;28;20036;-46
2023/10/12 13:28:04;;;;;;;0.00;0.00;;;;;;;15.61;100.00;101211.63;5102389;28;20292;-44
2023/10/12 13:30:30;;;;;;;0.00;0.00;;;;;;;15.62;100.00;101208.72;5104104;28;20032;-46
2023/10/12 13:32:59;;;;;;;0.00;0.00;;;;;;;15.67;100.00;101208.13;5102815;27;20023;-45
2023/10/12 13:38:09;;;;;;;0.00;0.00;;;;;;;15.80;100.00;101209.00;5098825;28;20128;-45
2023/10/12 13:40:36;;;;;;;0.00;0.00;;;;;;;15.88;100.00;101213.38;5102782;28;20042;-49
2023/10/12 13:43:07;;;;;;;0.00;0.00;;;;;;;15.88;100.00;101215.28;5104104;28;20384;-43
2023/10/12 13:45:33;;;;;;;0.00;0.00;;;;;;;15.92;100.00;101216.50;5103202;28;20038;-44
2023/10/12 13:47:58;;;;;;;0.00;0.00;;;;;;;15.96;100.00;101218.59;5103698;28;20023;-43